RKA6 weather

N-304 Helipad
Seodo, Jeonranamdo, South Korea

Public forecast

Using degrees Celsius for public forecast. Weather courtesy of forecast.io.

METAR (pilot weather report)

Closest report is Jeju International Airport, 50.8 nm (94.1 km) SW. Retrieved 2019/07/16 07:00 UTC (50 minutes ago):

RKPC 160700Z 06017KT CAVOK 25/21 Q1010 NOSIG

TAF (pilot weather forecast)

Closest forecast is Jeju International Airport, 50.8 nm (94.1 km) SW. Retrieved 2019/07/16 06:00 UTC (2 hours ago):

TAF RKPC 160500Z 1606/1712 07015G25KT CAVOK TN21/1620Z TX27/1703Z BECMG 1609/1610 17007KT 6000 NSC BECMG 1621/1622 09008KT FEW030 BKN180 BECMG 1702/1703 07015G25KT BECMG 1705/1706 FEW010 BKN025 OVC100 BECMG 1709/1710 09007KT -RA